sensor_id;sensor_type;location;lat;lon;timestamp;P1;durP1;ratioP1;P2;durP2;ratioP2
70313;SDS011;57725;47.526;18.986;2023-01-16T00:01:35;19.70;;;12.45;;
70313;SDS011;57725;47.526;18.986;2023-01-16T00:04:03;16.80;;;11.88;;
70313;SDS011;57725;47.526;18.986;2023-01-16T00:06:31;16.27;;;11.13;;
70313;SDS011;57725;47.526;18.986;2023-01-16T00:08:56;17.08;;;11.73;;
70313;SDS011;57725;47.526;18.986;2023-01-16T00:11:22;15.15;;;10.73;;
70313;SDS011;57725;47.526;18.986;2023-01-16T00:13:47;15.48;;;11.25;;
70313;SDS011;57725;47.526;18.986;2023-01-16T00:16:12;17.35;;;11.50;;
70313;SDS011;57725;47.526;18.986;2023-01-16T00:18:41;17.50;;;11.48;;
70313;SDS011;57725;47.526;18.986;2023-01-16T00:21:08;16.50;;;10.57;;
70313;SDS011;57725;47.526;18.986;2023-01-16T00:23:35;14.85;;;10.35;;
70313;SDS011;57725;47.526;18.986;2023-01-16T00:26:03;15.90;;;11.50;;
70313;SDS011;57725;47.526;18.986;2023-01-16T00:28:30;15.52;;;10.75;;
70313;SDS011;57725;47.526;18.986;2023-01-16T00:30:58;17.00;;;11.02;;
70313;SDS011;57725;47.526;18.986;2023-01-16T00:33:25;15.77;;;11.00;;
70313;SDS011;57725;47.526;18.986;2023-01-16T00:35:55;17.63;;;11.43;;
70313;SDS011;57725;47.526;18.986;2023-01-16T00:38:21;17.05;;;11.50;;
70313;SDS011;57725;47.526;18.986;2023-01-16T00:40:48;15.57;;;10.80;;
70313;SDS011;57725;47.526;18.986;2023-01-16T00:43:14;14.80;;;9.75;;
70313;SDS011;57725;47.526;18.986;2023-01-16T00:45:39;16.92;;;11.45;;
70313;SDS011;57725;47.526;18.986;2023-01-16T00:48:08;15.60;;;10.77;;
70313;SDS011;57725;47.526;18.986;2023-01-16T00:50:34;16.98;;;10.68;;
70313;SDS011;57725;47.526;18.986;2023-01-16T00:52:59;14.57;;;9.85;;
70313;SDS011;57725;47.526;18.986;2023-01-16T00:55:25;13.73;;;9.68;;
70313;SDS011;57725;47.526;18.986;2023-01-16T00:57:50;15.48;;;10.18;;
70313;SDS011;57725;47.526;18.986;2023-01-16T01:00:18;16.50;;;11.38;;
70313;SDS011;57725;47.526;18.986;2023-01-16T01:02:50;15.23;;;9.93;;
70313;SDS011;57725;47.526;18.986;2023-01-16T01:05:15;15.60;;;10.32;;
70313;SDS011;57725;47.526;18.986;2023-01-16T01:07:46;13.95;;;10.55;;
70313;SDS011;57725;47.526;18.986;2023-01-16T01:10:11;13.82;;;9.88;;
70313;SDS011;57725;47.526;18.986;2023-01-16T01:12:37;15.27;;;10.00;;
70313;SDS011;57725;47.526;18.986;2023-01-16T01:15:02;13.18;;;9.93;;
70313;SDS011;57725;47.526;18.986;2023-01-16T01:17:31;13.27;;;9.77;;
70313;SDS011;57725;47.526;18.986;2023-01-16T01:19:56;13.32;;;9.40;;
70313;SDS011;57725;47.526;18.986;2023-01-16T01:22:21;15.82;;;10.82;;
70313;SDS011;57725;47.526;18.986;2023-01-16T01:24:49;15.75;;;11.13;;
70313;SDS011;57725;47.526;18.986;2023-01-16T01:27:17;14.48;;;9.70;;
70313;SDS011;57725;47.526;18.986;2023-01-16T01:29:44;13.70;;;9.93;;
70313;SDS011;57725;47.526;18.986;2023-01-16T01:32:16;14.63;;;10.48;;
70313;SDS011;57725;47.526;18.986;2023-01-16T01:34:42;13.63;;;9.25;;
70313;SDS011;57725;47.526;18.986;2023-01-16T01:37:12;13.13;;;9.13;;
70313;SDS011;57725;47.526;18.986;2023-01-16T01:39:40;13.82;;;9.77;;
70313;SDS011;57725;47.526;18.986;2023-01-16T01:42:05;13.45;;;9.52;;
70313;SDS011;57725;47.526;18.986;2023-01-16T01:44:53;14.45;;;9.70;;
70313;SDS011;57725;47.526;18.986;2023-01-16T01:47:35;13.85;;;9.90;;
70313;SDS011;57725;47.526;18.986;2023-01-16T01:52:43;14.10;;;9.45;;
70313;SDS011;57725;47.526;18.986;2023-01-16T01:55:09;13.32;;;9.63;;
70313;SDS011;57725;47.526;18.986;2023-01-16T01:57:45;14.70;;;9.85;;
70313;SDS011;57725;47.526;18.986;2023-01-16T02:00:18;13.50;;;9.38;;
70313;SDS011;57725;47.526;18.986;2023-01-16T02:02:54;13.50;;;9.15;;
70313;SDS011;57725;47.526;18.986;2023-01-16T02:05:51;13.80;;;8.88;;
70313;SDS011;57725;47.526;18.986;2023-01-16T02:08:20;13.55;;;9.93;;
70313;SDS011;57725;47.526;18.986;2023-01-16T02:10:51;14.55;;;9.35;;
70313;SDS011;57725;47.526;18.986;2023-01-16T02:13:21;14.07;;;9.70;;
70313;SDS011;57725;47.526;18.986;2023-01-16T02:15:49;12.85;;;9.20;;
70313;SDS011;57725;47.526;18.986;2023-01-16T02:18:33;14.10;;;9.30;;
70313;SDS011;57725;47.526;18.986;2023-01-16T02:24:27;13.75;;;9.38;;
70313;SDS011;57725;47.526;18.986;2023-01-16T02:27:13;11.98;;;8.90;;
70313;SDS011;57725;47.526;18.986;2023-01-16T02:30:19;13.00;;;8.88;;
70313;SDS011;57725;47.526;18.986;2023-01-16T02:32:54;12.93;;;8.77;;
70313;SDS011;57725;47.526;18.986;2023-01-16T02:41:14;12.27;;;8.10;;
70313;SDS011;57725;47.526;18.986;2023-01-16T02:46:59;12.57;;;9.52;;
70313;SDS011;57725;47.526;18.986;2023-01-16T02:49:40;12.73;;;8.82;;
70313;SDS011;57725;47.526;18.986;2023-01-16T02:52:15;11.52;;;8.32;;
70313;SDS011;57725;47.526;18.986;2023-01-16T02:54:59;12.23;;;8.85;;
70313;SDS011;57725;47.526;18.986;2023-01-16T02:57:36;13.50;;;8.52;;
70313;SDS011;57725;47.526;18.986;2023-01-16T03:00:10;12.30;;;8.63;;
70313;SDS011;57725;47.526;18.986;2023-01-16T03:02:37;11.43;;;8.45;;
70313;SDS011;57725;47.526;18.986;2023-01-16T03:05:03;11.45;;;8.40;;
70313;SDS011;57725;47.526;18.986;2023-01-16T03:15:13;11.63;;;8.30;;
70313;SDS011;57725;47.526;18.986;2023-01-16T03:23:52;10.10;;;7.35;;
70313;SDS011;57725;47.526;18.986;2023-01-16T03:31:54;11.00;;;7.90;;
70313;SDS011;57725;47.526;18.986;2023-01-16T03:37:17;11.00;;;7.90;;
70313;SDS011;57725;47.526;18.986;2023-01-16T03:42:23;12.75;;;8.40;;
70313;SDS011;57725;47.526;18.986;2023-01-16T03:47:23;10.55;;;7.63;;
70313;SDS011;57725;47.526;18.986;2023-01-16T03:50:00;10.25;;;7.50;;
70313;SDS011;57725;47.526;18.986;2023-01-16T03:52:35;11.98;;;8.32;;
70313;SDS011;57725;47.526;18.986;2023-01-16T03:55:18;12.13;;;8.52;;
70313;SDS011;57725;47.526;18.986;2023-01-16T03:57:53;11.18;;;7.60;;
70313;SDS011;57725;47.526;18.986;2023-01-16T04:00:23;11.50;;;7.97;;
70313;SDS011;57725;47.526;18.986;2023-01-16T04:03:07;11.35;;;8.43;;
70313;SDS011;57725;47.526;18.986;2023-01-16T04:05:48;11.60;;;8.55;;
70313;SDS011;57725;47.526;18.986;2023-01-16T04:08:22;12.45;;;8.13;;
70313;SDS011;57725;47.526;18.986;2023-01-16T04:10:56;10.33;;;7.67;;
70313;SDS011;57725;47.526;18.986;2023-01-16T04:13:26;12.23;;;8.30;;
70313;SDS011;57725;47.526;18.986;2023-01-16T04:16:00;13.65;;;7.90;;
70313;SDS011;57725;47.526;18.986;2023-01-16T04:18:31;13.75;;;8.77;;
70313;SDS011;57725;47.526;18.986;2023-01-16T04:21:05;12.80;;;8.43;;
70313;SDS011;57725;47.526;18.986;2023-01-16T04:23:31;12.10;;;7.65;;
70313;SDS011;57725;47.526;18.986;2023-01-16T04:25:59;11.95;;;7.72;;
70313;SDS011;57725;47.526;18.986;2023-01-16T04:28:25;11.57;;;7.75;;
70313;SDS011;57725;47.526;18.986;2023-01-16T04:30:52;10.25;;;7.90;;
70313;SDS011;57725;47.526;18.986;2023-01-16T04:33:20;11.68;;;8.15;;
70313;SDS011;57725;47.526;18.986;2023-01-16T04:35:46;12.48;;;7.75;;
70313;SDS011;57725;47.526;18.986;2023-01-16T04:38:11;11.50;;;7.45;;
70313;SDS011;57725;47.526;18.986;2023-01-16T04:40:39;11.63;;;7.93;;
70313;SDS011;57725;47.526;18.986;2023-01-16T04:43:05;12.60;;;8.43;;
70313;SDS011;57725;47.526;18.986;2023-01-16T04:45:30;11.45;;;7.45;;
70313;SDS011;57725;47.526;18.986;2023-01-16T04:47:58;12.77;;;8.45;;
70313;SDS011;57725;47.526;18.986;2023-01-16T04:50:23;11.45;;;7.35;;
70313;SDS011;57725;47.526;18.986;2023-01-16T04:52:48;11.48;;;8.23;;
70313;SDS011;57725;47.526;18.986;2023-01-16T04:55:14;11.75;;;7.88;;
70313;SDS011;57725;47.526;18.986;2023-01-16T04:57:42;13.13;;;8.90;;
70313;SDS011;57725;47.526;18.986;2023-01-16T05:00:10;11.95;;;7.93;;
70313;SDS011;57725;47.526;18.986;2023-01-16T05:02:42;12.68;;;8.30;;
70313;SDS011;57725;47.526;18.986;2023-01-16T05:05:08;9.95;;;7.53;;
70313;SDS011;57725;47.526;18.986;2023-01-16T05:07:33;10.85;;;7.35;;
70313;SDS011;57725;47.526;18.986;2023-01-16T05:10:01;12.68;;;8.60;;
70313;SDS011;57725;47.526;18.986;2023-01-16T05:12:26;11.75;;;8.27;;
70313;SDS011;57725;47.526;18.986;2023-01-16T05:14:56;11.07;;;7.90;;
70313;SDS011;57725;47.526;18.986;2023-01-16T05:17:24;11.90;;;7.88;;
70313;SDS011;57725;47.526;18.986;2023-01-16T05:19:52;12.73;;;8.40;;
70313;SDS011;57725;47.526;18.986;2023-01-16T05:22:17;12.60;;;8.43;;
70313;SDS011;57725;47.526;18.986;2023-01-16T05:24:43;11.85;;;7.93;;
70313;SDS011;57725;47.526;18.986;2023-01-16T05:27:08;12.63;;;7.93;;
70313;SDS011;57725;47.526;18.986;2023-01-16T05:29:38;11.15;;;8.30;;
70313;SDS011;57725;47.526;18.986;2023-01-16T05:32:04;13.55;;;8.38;;
70313;SDS011;57725;47.526;18.986;2023-01-16T05:34:31;11.73;;;8.18;;
70313;SDS011;57725;47.526;18.986;2023-01-16T05:36:57;12.20;;;8.07;;
70313;SDS011;57725;47.526;18.986;2023-01-16T05:39:22;13.50;;;7.95;;
70313;SDS011;57725;47.526;18.986;2023-01-16T05:41:47;11.88;;;8.23;;
70313;SDS011;57725;47.526;18.986;2023-01-16T05:44:15;13.75;;;8.48;;
70313;SDS011;57725;47.526;18.986;2023-01-16T05:46:41;12.13;;;7.72;;
70313;SDS011;57725;47.526;18.986;2023-01-16T05:49:06;11.18;;;7.97;;
70313;SDS011;57725;47.526;18.986;2023-01-16T05:51:31;11.57;;;8.07;;
70313;SDS011;57725;47.526;18.986;2023-01-16T05:53:57;13.57;;;8.40;;
70313;SDS011;57725;47.526;18.986;2023-01-16T05:56:22;12.25;;;8.13;;
70313;SDS011;57725;47.526;18.986;2023-01-16T05:58:50;12.27;;;8.63;;
70313;SDS011;57725;47.526;18.986;2023-01-16T06:01:16;12.18;;;7.93;;
70313;SDS011;57725;47.526;18.986;2023-01-16T06:03:46;12.05;;;8.30;;
70313;SDS011;57725;47.526;18.986;2023-01-16T06:06:12;14.25;;;8.88;;
70313;SDS011;57725;47.526;18.986;2023-01-16T06:08:37;13.75;;;8.25;;
70313;SDS011;57725;47.526;18.986;2023-01-16T06:11:02;12.48;;;8.02;;
70313;SDS011;57725;47.526;18.986;2023-01-16T06:13:30;13.27;;;8.50;;
70313;SDS011;57725;47.526;18.986;2023-01-16T06:15:55;12.05;;;7.90;;
70313;SDS011;57725;47.526;18.986;2023-01-16T06:18:26;13.07;;;8.65;;
70313;SDS011;57725;47.526;18.986;2023-01-16T06:20:51;13.52;;;8.63;;
70313;SDS011;57725;47.526;18.986;2023-01-16T06:23:16;13.25;;;8.25;;
70313;SDS011;57725;47.526;18.986;2023-01-16T06:25:42;13.70;;;8.65;;
70313;SDS011;57725;47.526;18.986;2023-01-16T06:28:07;13.52;;;8.43;;
70313;SDS011;57725;47.526;18.986;2023-01-16T06:30:32;14.32;;;8.75;;
70313;SDS011;57725;47.526;18.986;2023-01-16T06:32:58;12.32;;;8.40;;
70313;SDS011;57725;47.526;18.986;2023-01-16T06:35:23;13.00;;;8.95;;
70313;SDS011;57725;47.526;18.986;2023-01-16T06:37:49;13.43;;;8.35;;
70313;SDS011;57725;47.526;18.986;2023-01-16T06:40:14;15.80;;;9.57;;
70313;SDS011;57725;47.526;18.986;2023-01-16T06:42:40;13.85;;;9.20;;
70313;SDS011;57725;47.526;18.986;2023-01-16T06:45:14;14.60;;;9.20;;
70313;SDS011;57725;47.526;18.986;2023-01-16T06:47:49;14.32;;;9.68;;
70313;SDS011;57725;47.526;18.986;2023-01-16T06:50:16;15.90;;;9.68;;
70313;SDS011;57725;47.526;18.986;2023-01-16T06:52:41;15.40;;;9.55;;
70313;SDS011;57725;47.526;18.986;2023-01-16T06:55:11;15.52;;;9.63;;
70313;SDS011;57725;47.526;18.986;2023-01-16T06:57:39;16.55;;;10.32;;
70313;SDS011;57725;47.526;18.986;2023-01-16T07:00:07;13.95;;;9.23;;
70313;SDS011;57725;47.526;18.986;2023-01-16T07:02:33;16.35;;;9.73;;
70313;SDS011;57725;47.526;18.986;2023-01-16T07:04:58;15.63;;;9.68;;
70313;SDS011;57725;47.526;18.986;2023-01-16T07:07:23;16.50;;;9.80;;
70313;SDS011;57725;47.526;18.986;2023-01-16T07:09:49;15.55;;;10.13;;
70313;SDS011;57725;47.526;18.986;2023-01-16T07:12:14;15.02;;;10.02;;
70313;SDS011;57725;47.526;18.986;2023-01-16T07:14:39;14.57;;;9.13;;
70313;SDS011;57725;47.526;18.986;2023-01-16T07:17:23;16.42;;;10.52;;
70313;SDS011;57725;47.526;18.986;2023-01-16T07:20:09;15.05;;;9.52;;
70313;SDS011;57725;47.526;18.986;2023-01-16T07:22:53;16.40;;;10.45;;
70313;SDS011;57725;47.526;18.986;2023-01-16T07:25:21;19.45;;;11.10;;
70313;SDS011;57725;47.526;18.986;2023-01-16T07:28:00;18.77;;;10.52;;
70313;SDS011;57725;47.526;18.986;2023-01-16T07:30:26;17.20;;;9.82;;
70313;SDS011;57725;47.526;18.986;2023-01-16T07:32:52;17.45;;;10.50;;
70313;SDS011;57725;47.526;18.986;2023-01-16T07:35:20;16.42;;;10.30;;
70313;SDS011;57725;47.526;18.986;2023-01-16T07:37:45;15.45;;;9.43;;
70313;SDS011;57725;47.526;18.986;2023-01-16T07:40:11;17.67;;;9.52;;
70313;SDS011;57725;47.526;18.986;2023-01-16T07:42:39;15.88;;;10.18;;
70313;SDS011;57725;47.526;18.986;2023-01-16T07:45:05;15.15;;;9.95;;
70313;SDS011;57725;47.526;18.986;2023-01-16T07:47:32;18.05;;;10.98;;
70313;SDS011;57725;47.526;18.986;2023-01-16T07:50:01;18.58;;;10.48;;
70313;SDS011;57725;47.526;18.986;2023-01-16T07:52:32;16.63;;;10.20;;
70313;SDS011;57725;47.526;18.986;2023-01-16T07:54:57;18.25;;;11.02;;
70313;SDS011;57725;47.526;18.986;2023-01-16T07:57:22;17.42;;;10.32;;
70313;SDS011;57725;47.526;18.986;2023-01-16T07:59:50;17.13;;;10.50;;
70313;SDS011;57725;47.526;18.986;2023-01-16T08:02:15;17.40;;;10.70;;
70313;SDS011;57725;47.526;18.986;2023-01-16T08:04:40;17.67;;;10.68;;
70313;SDS011;57725;47.526;18.986;2023-01-16T08:07:08;17.08;;;10.93;;
70313;SDS011;57725;47.526;18.986;2023-01-16T08:09:38;17.45;;;10.80;;
70313;SDS011;57725;47.526;18.986;2023-01-16T08:12:03;17.35;;;10.82;;
70313;SDS011;57725;47.526;18.986;2023-01-16T08:14:29;14.80;;;9.73;;
70313;SDS011;57725;47.526;18.986;2023-01-16T08:16:57;17.75;;;10.90;;
70313;SDS011;57725;47.526;18.986;2023-01-16T08:19:22;16.67;;;10.45;;
70313;SDS011;57725;47.526;18.986;2023-01-16T08:21:50;15.80;;;10.02;;
70313;SDS011;57725;47.526;18.986;2023-01-16T08:24:15;17.38;;;10.68;;
70313;SDS011;57725;47.526;18.986;2023-01-16T08:26:41;17.55;;;10.70;;
70313;SDS011;57725;47.526;18.986;2023-01-16T08:29:08;16.40;;;10.75;;
70313;SDS011;57725;47.526;18.986;2023-01-16T08:31:37;18.00;;;11.43;;
70313;SDS011;57725;47.526;18.986;2023-01-16T08:34:02;16.50;;;9.77;;
70313;SDS011;57725;47.526;18.986;2023-01-16T08:36:30;17.17;;;11.20;;
70313;SDS011;57725;47.526;18.986;2023-01-16T08:38:56;18.33;;;11.30;;
70313;SDS011;57725;47.526;18.986;2023-01-16T08:41:21;17.88;;;11.20;;
70313;SDS011;57725;47.526;18.986;2023-01-16T08:44:07;16.85;;;10.93;;
70313;SDS011;57725;47.526;18.986;2023-01-16T08:49:55;15.95;;;9.82;;
70313;SDS011;57725;47.526;18.986;2023-01-16T08:52:39;18.75;;;10.57;;
70313;SDS011;57725;47.526;18.986;2023-01-16T08:55:11;18.08;;;10.57;;
70313;SDS011;57725;47.526;18.986;2023-01-16T08:57:37;18.05;;;10.77;;
70313;SDS011;57725;47.526;18.986;2023-01-16T09:00:04;18.92;;;11.00;;
70313;SDS011;57725;47.526;18.986;2023-01-16T09:02:31;18.17;;;11.70;;
70313;SDS011;57725;47.526;18.986;2023-01-16T09:04:59;18.83;;;11.73;;
70313;SDS011;57725;47.526;18.986;2023-01-16T09:07:24;17.90;;;10.82;;
70313;SDS011;57725;47.526;18.986;2023-01-16T09:09:50;17.73;;;12.30;;
70313;SDS011;57725;47.526;18.986;2023-01-16T09:12:18;16.85;;;10.63;;
70313;SDS011;57725;47.526;18.986;2023-01-16T09:15:03;17.88;;;11.05;;
70313;SDS011;57725;47.526;18.986;2023-01-16T09:17:34;17.33;;;10.75;;
70313;SDS011;57725;47.526;18.986;2023-01-16T09:20:02;18.73;;;10.65;;
70313;SDS011;57725;47.526;18.986;2023-01-16T09:22:28;17.27;;;11.55;;
70313;SDS011;57725;47.526;18.986;2023-01-16T09:24:58;17.08;;;10.48;;
70313;SDS011;57725;47.526;18.986;2023-01-16T09:27:26;16.60;;;10.77;;
70313;SDS011;57725;47.526;18.986;2023-01-16T09:29:56;18.42;;;10.88;;
70313;SDS011;57725;47.526;18.986;2023-01-16T09:32:21;18.17;;;10.93;;
70313;SDS011;57725;47.526;18.986;2023-01-16T09:34:49;20.40;;;11.88;;
70313;SDS011;57725;47.526;18.986;2023-01-16T09:37:15;19.13;;;11.82;;
70313;SDS011;57725;47.526;18.986;2023-01-16T09:39:41;19.00;;;10.93;;
70313;SDS011;57725;47.526;18.986;2023-01-16T09:45:25;19.02;;;12.07;;
70313;SDS011;57725;47.526;18.986;2023-01-16T09:48:00;19.02;;;10.98;;
70313;SDS011;57725;47.526;18.986;2023-01-16T09:50:36;17.95;;;10.82;;
70313;SDS011;57725;47.526;18.986;2023-01-16T09:53:41;17.63;;;10.77;;
70313;SDS011;57725;47.526;18.986;2023-01-16T09:56:33;17.05;;;10.73;;
70313;SDS011;57725;47.526;18.986;2023-01-16T09:59:38;17.00;;;10.25;;
70313;SDS011;57725;47.526;18.986;2023-01-16T10:04:53;18.95;;;11.18;;
70313;SDS011;57725;47.526;18.986;2023-01-16T10:10:28;18.33;;;10.90;;
70313;SDS011;57725;47.526;18.986;2023-01-16T10:29:58;18.67;;;11.35;;
70313;SDS011;57725;47.526;18.986;2023-01-16T10:35:26;21.58;;;12.43;;
70313;SDS011;57725;47.526;18.986;2023-01-16T10:38:02;18.15;;;11.38;;
70313;SDS011;57725;47.526;18.986;2023-01-16T10:40:42;19.70;;;12.43;;
70313;SDS011;57725;47.526;18.986;2023-01-16T10:43:10;20.08;;;12.68;;
70313;SDS011;57725;47.526;18.986;2023-01-16T10:46:36;20.13;;;11.90;;
70313;SDS011;57725;47.526;18.986;2023-01-16T10:49:19;20.77;;;12.02;;
70313;SDS011;57725;47.526;18.986;2023-01-16T10:51:51;21.33;;;12.18;;
70313;SDS011;57725;47.526;18.986;2023-01-16T10:54:16;20.65;;;12.95;;
70313;SDS011;57725;47.526;18.986;2023-01-16T10:56:49;22.20;;;13.23;;
70313;SDS011;57725;47.526;18.986;2023-01-16T10:59:17;22.23;;;12.38;;
70313;SDS011;57725;47.526;18.986;2023-01-16T11:01:46;20.75;;;12.85;;
70313;SDS011;57725;47.526;18.986;2023-01-16T11:04:17;19.95;;;12.68;;
70313;SDS011;57725;47.526;18.986;2023-01-16T11:06:46;27.35;;;15.95;;
70313;SDS011;57725;47.526;18.986;2023-01-16T11:11:42;47.05;;;24.05;;
70313;SDS011;57725;47.526;18.986;2023-01-16T11:14:29;45.40;;;23.52;;
70313;SDS011;57725;47.526;18.986;2023-01-16T11:20:31;40.90;;;22.33;;
70313;SDS011;57725;47.526;18.986;2023-01-16T11:23:20;43.80;;;23.20;;
70313;SDS011;57725;47.526;18.986;2023-01-16T11:25:51;44.45;;;23.13;;
70313;SDS011;57725;47.526;18.986;2023-01-16T11:28:22;44.25;;;24.10;;
70313;SDS011;57725;47.526;18.986;2023-01-16T11:30:59;40.53;;;21.92;;
70313;SDS011;57725;47.526;18.986;2023-01-16T11:33:28;40.08;;;21.58;;
70313;SDS011;57725;47.526;18.986;2023-01-16T11:36:00;45.22;;;23.60;;
70313;SDS011;57725;47.526;18.986;2023-01-16T11:38:32;39.42;;;22.08;;
70313;SDS011;57725;47.526;18.986;2023-01-16T11:41:03;40.30;;;21.77;;
70313;SDS011;57725;47.526;18.986;2023-01-16T11:43:33;39.13;;;21.08;;
70313;SDS011;57725;47.526;18.986;2023-01-16T11:48:54;40.00;;;22.23;;
70313;SDS011;57725;47.526;18.986;2023-01-16T11:51:27;41.75;;;22.02;;
70313;SDS011;57725;47.526;18.986;2023-01-16T11:53:54;38.15;;;20.88;;
70313;SDS011;57725;47.526;18.986;2023-01-16T12:01:34;33.95;;;19.52;;
70313;SDS011;57725;47.526;18.986;2023-01-16T12:04:30;39.47;;;21.60;;
70313;SDS011;57725;47.526;18.986;2023-01-16T12:09:31;38.92;;;20.83;;
70313;SDS011;57725;47.526;18.986;2023-01-16T12:12:49;38.95;;;21.20;;
70313;SDS011;57725;47.526;18.986;2023-01-16T12:18:20;33.90;;;19.52;;
70313;SDS011;57725;47.526;18.986;2023-01-16T12:20:59;37.53;;;20.08;;
70313;SDS011;57725;47.526;18.986;2023-01-16T12:23:33;37.67;;;20.45;;
70313;SDS011;57725;47.526;18.986;2023-01-16T12:31:42;31.98;;;19.00;;
70313;SDS011;57725;47.526;18.986;2023-01-16T12:45:50;32.92;;;18.38;;
70313;SDS011;57725;47.526;18.986;2023-01-16T12:51:02;33.42;;;18.13;;
70313;SDS011;57725;47.526;18.986;2023-01-16T12:59:15;32.60;;;17.08;;
70313;SDS011;57725;47.526;18.986;2023-01-16T13:01:47;35.63;;;19.40;;
70313;SDS011;57725;47.526;18.986;2023-01-16T13:04:17;33.65;;;17.08;;
70313;SDS011;57725;47.526;18.986;2023-01-16T13:07:03;33.88;;;18.75;;
70313;SDS011;57725;47.526;18.986;2023-01-16T13:14:54;32.20;;;17.65;;
70313;SDS011;57725;47.526;18.986;2023-01-16T13:17:31;33.97;;;19.05;;
70313;SDS011;57725;47.526;18.986;2023-01-16T13:20:09;33.58;;;17.77;;
70313;SDS011;57725;47.526;18.986;2023-01-16T13:22:48;35.00;;;19.05;;
70313;SDS011;57725;47.526;18.986;2023-01-16T13:27:43;32.17;;;18.05;;
70313;SDS011;57725;47.526;18.986;2023-01-16T13:30:13;30.38;;;17.02;;
70313;SDS011;57725;47.526;18.986;2023-01-16T13:41:11;31.35;;;17.42;;
70313;SDS011;57725;47.526;18.986;2023-01-16T13:46:43;29.23;;;16.55;;
70313;SDS011;57725;47.526;18.986;2023-01-16T13:49:15;32.40;;;18.02;;
70313;SDS011;57725;47.526;18.986;2023-01-16T13:51:45;28.23;;;17.88;;
70313;SDS011;57725;47.526;18.986;2023-01-16T13:54:22;32.05;;;18.08;;
70313;SDS011;57725;47.526;18.986;2023-01-16T13:56:58;30.52;;;16.85;;
70313;SDS011;57725;47.526;18.986;2023-01-16T14:15:55;29.85;;;17.85;;
70313;SDS011;57725;47.526;18.986;2023-01-16T14:18:43;30.05;;;16.77;;
70313;SDS011;57725;47.526;18.986;2023-01-16T14:21:39;29.05;;;17.77;;
70313;SDS011;57725;47.526;18.986;2023-01-16T14:24:53;30.67;;;16.95;;
70313;SDS011;57725;47.526;18.986;2023-01-16T14:27:23;26.95;;;17.00;;
70313;SDS011;57725;47.526;18.986;2023-01-16T14:29:56;29.33;;;17.27;;
70313;SDS011;57725;47.526;18.986;2023-01-16T14:32:26;29.23;;;17.77;;
70313;SDS011;57725;47.526;18.986;2023-01-16T14:34:57;30.10;;;17.55;;
70313;SDS011;57725;47.526;18.986;2023-01-16T14:50:58;28.50;;;17.10;;
70313;SDS011;57725;47.526;18.986;2023-01-16T14:53:59;30.50;;;17.83;;
70313;SDS011;57725;47.526;18.986;2023-01-16T14:56:49;30.98;;;17.88;;
70313;SDS011;57725;47.526;18.986;2023-01-16T14:59:22;28.20;;;16.88;;
70313;SDS011;57725;47.526;18.986;2023-01-16T15:02:17;29.73;;;17.75;;
70313;SDS011;57725;47.526;18.986;2023-01-16T15:10:29;27.95;;;16.65;;
70313;SDS011;57725;47.526;18.986;2023-01-16T15:13:14;30.80;;;18.00;;
70313;SDS011;57725;47.526;18.986;2023-01-16T15:15:47;29.52;;;17.10;;
70313;SDS011;57725;47.526;18.986;2023-01-16T15:18:22;28.25;;;17.25;;
70313;SDS011;57725;47.526;18.986;2023-01-16T15:21:13;32.85;;;18.63;;
70313;SDS011;57725;47.526;18.986;2023-01-16T15:24:04;27.58;;;16.25;;
70313;SDS011;57725;47.526;18.986;2023-01-16T15:26:50;27.48;;;16.23;;
70313;SDS011;57725;47.526;18.986;2023-01-16T15:29:34;26.65;;;16.50;;
70313;SDS011;57725;47.526;18.986;2023-01-16T15:32:16;29.58;;;17.25;;
70313;SDS011;57725;47.526;18.986;2023-01-16T15:34:47;25.17;;;16.05;;
70313;SDS011;57725;47.526;18.986;2023-01-16T15:37:28;25.42;;;15.57;;
70313;SDS011;57725;47.526;18.986;2023-01-16T15:39:54;26.10;;;16.48;;
70313;SDS011;57725;47.526;18.986;2023-01-16T15:42:23;27.30;;;16.55;;
70313;SDS011;57725;47.526;18.986;2023-01-16T15:50:57;25.70;;;16.85;;
70313;SDS011;57725;47.526;18.986;2023-01-16T15:53:33;27.23;;;16.35;;
70313;SDS011;57725;47.526;18.986;2023-01-16T15:56:06;26.95;;;15.63;;
70313;SDS011;57725;47.526;18.986;2023-01-16T15:58:43;26.17;;;15.63;;
70313;SDS011;57725;47.526;18.986;2023-01-16T16:01:12;28.25;;;16.35;;
70313;SDS011;57725;47.526;18.986;2023-01-16T16:03:40;26.20;;;15.70;;
70313;SDS011;57725;47.526;18.986;2023-01-16T16:06:08;27.58;;;16.48;;
70313;SDS011;57725;47.526;18.986;2023-01-16T16:08:39;27.98;;;16.65;;
70313;SDS011;57725;47.526;18.986;2023-01-16T16:11:10;26.60;;;16.17;;
70313;SDS011;57725;47.526;18.986;2023-01-16T16:14:09;23.67;;;14.73;;
70313;SDS011;57725;47.526;18.986;2023-01-16T16:17:03;23.45;;;14.98;;
70313;SDS011;57725;47.526;18.986;2023-01-16T16:20:02;26.65;;;15.85;;
70313;SDS011;57725;47.526;18.986;2023-01-16T16:36:24;23.90;;;15.38;;
70313;SDS011;57725;47.526;18.986;2023-01-16T16:38:51;26.25;;;15.77;;
70313;SDS011;57725;47.526;18.986;2023-01-16T16:44:21;23.80;;;15.07;;
70313;SDS011;57725;47.526;18.986;2023-01-16T16:46:50;25.15;;;16.25;;
70313;SDS011;57725;47.526;18.986;2023-01-16T16:51:49;22.33;;;14.43;;
70313;SDS011;57725;47.526;18.986;2023-01-16T16:54:17;26.15;;;15.60;;
70313;SDS011;57725;47.526;18.986;2023-01-16T16:56:56;24.33;;;15.10;;
70313;SDS011;57725;47.526;18.986;2023-01-16T16:59:26;24.10;;;14.85;;
70313;SDS011;57725;47.526;18.986;2023-01-16T17:01:56;23.33;;;13.77;;
70313;SDS011;57725;47.526;18.986;2023-01-16T17:04:31;22.60;;;14.48;;
70313;SDS011;57725;47.526;18.986;2023-01-16T17:06:56;24.10;;;15.38;;
70313;SDS011;57725;47.526;18.986;2023-01-16T17:09:25;23.25;;;15.15;;
70313;SDS011;57725;47.526;18.986;2023-01-16T17:11:51;22.65;;;14.45;;
70313;SDS011;57725;47.526;18.986;2023-01-16T17:14:17;22.98;;;14.93;;
70313;SDS011;57725;47.526;18.986;2023-01-16T17:16:42;22.48;;;14.88;;
70313;SDS011;57725;47.526;18.986;2023-01-16T17:19:27;24.65;;;14.60;;
70313;SDS011;57725;47.526;18.986;2023-01-16T17:21:59;22.85;;;15.10;;
70313;SDS011;57725;47.526;18.986;2023-01-16T17:24:27;22.08;;;14.68;;
70313;SDS011;57725;47.526;18.986;2023-01-16T17:26:55;24.25;;;15.02;;
70313;SDS011;57725;47.526;18.986;2023-01-16T17:29:20;23.67;;;14.77;;
70313;SDS011;57725;47.526;18.986;2023-01-16T17:31:50;23.73;;;14.30;;
70313;SDS011;57725;47.526;18.986;2023-01-16T17:34:20;25.55;;;15.75;;
70313;SDS011;57725;47.526;18.986;2023-01-16T17:36:45;21.63;;;14.40;;
70313;SDS011;57725;47.526;18.986;2023-01-16T17:39:16;23.98;;;15.18;;
70313;SDS011;57725;47.526;18.986;2023-01-16T17:41:44;23.38;;;14.70;;
70313;SDS011;57725;47.526;18.986;2023-01-16T17:44:15;22.92;;;15.30;;
70313;SDS011;57725;47.526;18.986;2023-01-16T17:47:04;23.15;;;14.77;;
70313;SDS011;57725;47.526;18.986;2023-01-16T17:49:30;22.70;;;14.98;;
70313;SDS011;57725;47.526;18.986;2023-01-16T17:51:56;26.52;;;15.85;;
70313;SDS011;57725;47.526;18.986;2023-01-16T17:54:24;22.98;;;14.85;;
70313;SDS011;57725;47.526;18.986;2023-01-16T17:57:08;22.63;;;14.65;;
70313;SDS011;57725;47.526;18.986;2023-01-16T17:59:33;22.95;;;14.38;;